sensor_id;sensor_type;location;lat;lon;timestamp;pressure;altitude;pressure_sealevel;temperature;humidity
49194;BME280;35029;50.804;12.866;2023-07-08T00:01:15;98094.09;;;16.57;70.65
49194;BME280;35029;50.804;12.866;2023-07-08T00:03:41;98099.13;;;16.65;70.32
49194;BME280;35029;50.804;12.866;2023-07-08T00:06:16;98097.34;;;16.59;70.29
49194;BME280;35029;50.804;12.866;2023-07-08T00:08:42;98094.78;;;16.52;69.60
49194;BME280;35029;50.804;12.866;2023-07-08T00:11:10;98090.53;;;16.45;70.46
49194;BME280;35029;50.804;12.866;2023-07-08T00:13:36;98077.47;;;16.18;69.96
49194;BME280;35029;50.804;12.866;2023-07-08T00:16:02;98089.97;;;16.24;70.94
49194;BME280;35029;50.804;12.866;2023-07-08T00:18:27;98095.66;;;16.28;70.93
49194;BME280;35029;50.804;12.866;2023-07-08T00:20:53;98090.19;;;16.22;71.21
49194;BME280;35029;50.804;12.866;2023-07-08T00:23:18;98089.59;;;16.20;70.97
49194;BME280;35029;50.804;12.866;2023-07-08T00:25:47;98088.13;;;16.06;72.16
49194;BME280;35029;50.804;12.866;2023-07-08T00:28:18;98081.63;;;16.14;71.22
49194;BME280;35029;50.804;12.866;2023-07-08T00:30:47;98070.94;;;15.95;71.70
49194;BME280;35029;50.804;12.866;2023-07-08T00:33:12;98082.84;;;15.99;71.77
49194;BME280;35029;50.804;12.866;2023-07-08T00:35:42;98081.94;;;16.05;71.37
49194;BME280;35029;50.804;12.866;2023-07-08T00:40:49;98087.69;;;15.84;72.53
49194;BME280;35029;50.804;12.866;2023-07-08T00:43:16;98069.25;;;15.76;73.04
49194;BME280;35029;50.804;12.866;2023-07-08T00:45:48;98086.09;;;15.83;72.73
49194;BME280;35029;50.804;12.866;2023-07-08T00:48:30;98074.66;;;15.69;72.65
49194;BME280;35029;50.804;12.866;2023-07-08T00:50:58;98075.03;;;15.72;72.79
49194;BME280;35029;50.804;12.866;2023-07-08T00:55:59;98092.28;;;15.77;72.49
49194;BME280;35029;50.804;12.866;2023-07-08T00:58:32;98089.50;;;15.65;72.61
49194;BME280;35029;50.804;12.866;2023-07-08T01:00:59;98089.13;;;15.61;72.54
49194;BME280;35029;50.804;12.866;2023-07-08T01:03:27;98064.31;;;15.54;72.10
49194;BME280;35029;50.804;12.866;2023-07-08T01:05:56;98082.59;;;15.57;72.71
49194;BME280;35029;50.804;12.866;2023-07-08T01:08:25;98090.44;;;15.52;72.82
49194;BME280;35029;50.804;12.866;2023-07-08T01:10:58;98094.84;;;15.40;73.31
49194;BME280;35029;50.804;12.866;2023-07-08T01:13:25;98088.31;;;15.35;73.73
49194;BME280;35029;50.804;12.866;2023-07-08T01:15:53;98089.50;;;15.40;73.88
49194;BME280;35029;50.804;12.866;2023-07-08T01:18:20;98085.97;;;15.46;73.80
49194;BME280;35029;50.804;12.866;2023-07-08T01:20:47;98086.78;;;15.46;74.09
49194;BME280;35029;50.804;12.866;2023-07-08T01:23:13;98084.28;;;15.26;74.67
49194;BME280;35029;50.804;12.866;2023-07-08T01:25:41;98081.81;;;15.25;75.10
49194;BME280;35029;50.804;12.866;2023-07-08T01:28:08;98080.41;;;15.22;74.80
49194;BME280;35029;50.804;12.866;2023-07-08T01:30:33;98053.97;;;15.14;75.88
49194;BME280;35029;50.804;12.866;2023-07-08T01:33:04;98062.72;;;15.21;75.65
49194;BME280;35029;50.804;12.866;2023-07-08T01:35:31;98064.78;;;15.26;75.94
49194;BME280;35029;50.804;12.866;2023-07-08T01:38:01;98067.03;;;15.22;75.69
49194;BME280;35029;50.804;12.866;2023-07-08T01:40:32;98059.84;;;15.23;76.04
49194;BME280;35029;50.804;12.866;2023-07-08T01:43:00;98066.44;;;15.20;76.94
49194;BME280;35029;50.804;12.866;2023-07-08T01:45:28;98060.69;;;15.23;76.46
49194;BME280;35029;50.804;12.866;2023-07-08T01:48:07;98060.72;;;15.16;78.22
49194;BME280;35029;50.804;12.866;2023-07-08T01:50:39;98057.22;;;15.16;77.65
49194;BME280;35029;50.804;12.866;2023-07-08T01:53:11;98052.44;;;15.25;77.73
49194;BME280;35029;50.804;12.866;2023-07-08T01:55:37;98047.75;;;15.20;77.42
49194;BME280;35029;50.804;12.866;2023-07-08T01:58:03;98051.28;;;15.14;78.20
49194;BME280;35029;50.804;12.866;2023-07-08T02:00:28;98055.16;;;15.18;78.58
49194;BME280;35029;50.804;12.866;2023-07-08T02:03:06;98055.59;;;15.15;79.13
49194;BME280;35029;50.804;12.866;2023-07-08T02:05:39;98041.06;;;15.11;79.75
49194;BME280;35029;50.804;12.866;2023-07-08T02:08:05;98048.00;;;15.12;79.11
49194;BME280;35029;50.804;12.866;2023-07-08T02:10:31;98045.06;;;15.20;78.88
49194;BME280;35029;50.804;12.866;2023-07-08T02:12:59;98027.09;;;15.09;78.80
49194;BME280;35029;50.804;12.866;2023-07-08T02:15:26;98045.91;;;15.20;79.09
49194;BME280;35029;50.804;12.866;2023-07-08T02:18:08;98049.03;;;15.17;78.72
49194;BME280;35029;50.804;12.866;2023-07-08T02:20:45;98038.53;;;15.16;79.20
49194;BME280;35029;50.804;12.866;2023-07-08T02:23:10;98047.91;;;15.25;79.57
49194;BME280;35029;50.804;12.866;2023-07-08T02:25:36;98051.78;;;15.29;79.04
49194;BME280;35029;50.804;12.866;2023-07-08T02:28:02;98055.13;;;15.25;78.94
49194;BME280;35029;50.804;12.866;2023-07-08T02:30:28;98043.00;;;15.22;78.24
49194;BME280;35029;50.804;12.866;2023-07-08T02:32:53;98055.13;;;15.25;78.47
49194;BME280;35029;50.804;12.866;2023-07-08T02:35:29;98050.41;;;15.20;77.54
49194;BME280;35029;50.804;12.866;2023-07-08T02:37:56;98049.81;;;15.18;79.48
49194;BME280;35029;50.804;12.866;2023-07-08T02:40:23;98049.88;;;15.11;80.01
49194;BME280;35029;50.804;12.866;2023-07-08T02:42:49;98050.91;;;15.10;80.77
49194;BME280;35029;50.804;12.866;2023-07-08T02:45:16;98051.69;;;15.17;80.29
49194;BME280;35029;50.804;12.866;2023-07-08T02:47:42;98052.28;;;15.19;79.12
49194;BME280;35029;50.804;12.866;2023-07-08T02:50:09;98053.69;;;15.22;79.39
49194;BME280;35029;50.804;12.866;2023-07-08T02:52:35;98048.56;;;15.20;77.73
49194;BME280;35029;50.804;12.866;2023-07-08T02:55:01;98048.94;;;15.24;76.56
49194;BME280;35029;50.804;12.866;2023-07-08T02:57:26;98048.34;;;15.22;76.05
49194;BME280;35029;50.804;12.866;2023-07-08T02:59:52;98045.91;;;15.20;78.18
49194;BME280;35029;50.804;12.866;2023-07-08T03:02:18;98051.25;;;15.20;78.18
49194;BME280;35029;50.804;12.866;2023-07-08T03:04:43;98049.94;;;15.30;77.16
49194;BME280;35029;50.804;12.866;2023-07-08T03:07:10;98036.78;;;15.28;76.02
49194;BME280;35029;50.804;12.866;2023-07-08T03:09:40;98046.94;;;15.45;74.35
49194;BME280;35029;50.804;12.866;2023-07-08T03:12:09;98042.94;;;15.54;73.59
49194;BME280;35029;50.804;12.866;2023-07-08T03:14:35;98046.94;;;15.45;76.78
49194;BME280;35029;50.804;12.866;2023-07-08T03:17:03;98050.41;;;15.45;79.08
49194;BME280;35029;50.804;12.866;2023-07-08T03:19:29;98053.25;;;15.25;80.61
49194;BME280;35029;50.804;12.866;2023-07-08T03:21:56;98055.13;;;15.25;81.24
49194;BME280;35029;50.804;12.866;2023-07-08T03:24:23;98056.69;;;15.32;81.61
49194;BME280;35029;50.804;12.866;2023-07-08T03:26:48;98061.66;;;15.29;81.82
49194;BME280;35029;50.804;12.866;2023-07-08T03:29:20;98062.91;;;15.26;81.63
49194;BME280;35029;50.804;12.866;2023-07-08T03:31:46;98064.31;;;15.29;80.80
49194;BME280;35029;50.804;12.866;2023-07-08T03:34:14;98049.94;;;15.30;79.18
49194;BME280;35029;50.804;12.866;2023-07-08T03:36:44;98062.25;;;15.31;79.58
49194;BME280;35029;50.804;12.866;2023-07-08T03:39:23;98063.13;;;15.25;78.85
49194;BME280;35029;50.804;12.866;2023-07-08T03:41:50;98062.47;;;15.29;77.66
49194;BME280;35029;50.804;12.866;2023-07-08T03:44:15;98073.97;;;15.30;78.49
49194;BME280;35029;50.804;12.866;2023-07-08T03:46:43;98070.88;;;15.33;77.48
49194;BME280;35029;50.804;12.866;2023-07-08T03:49:10;98060.63;;;15.30;77.93
49194;BME280;35029;50.804;12.866;2023-07-08T03:51:38;98065.56;;;15.26;78.04
49194;BME280;35029;50.804;12.866;2023-07-08T03:54:06;98067.75;;;15.36;78.23
49194;BME280;35029;50.804;12.866;2023-07-08T03:56:34;98054.63;;;15.34;77.94
49194;BME280;35029;50.804;12.866;2023-07-08T03:59:01;98057.69;;;15.38;77.67
49194;BME280;35029;50.804;12.866;2023-07-08T04:01:26;98061.91;;;15.46;77.89
49194;BME280;35029;50.804;12.866;2023-07-08T04:03:55;98063.34;;;15.48;77.81
49194;BME280;35029;50.804;12.866;2023-07-08T04:06:21;98058.59;;;15.50;76.62
49194;BME280;35029;50.804;12.866;2023-07-08T04:08:48;98046.50;;;15.48;76.89
49194;BME280;35029;50.804;12.866;2023-07-08T04:11:16;98063.44;;;15.60;77.87
49194;BME280;35029;50.804;12.866;2023-07-08T04:13:42;98059.94;;;15.60;78.08
49194;BME280;35029;50.804;12.866;2023-07-08T04:16:16;98058.03;;;15.67;77.73
49194;BME280;35029;50.804;12.866;2023-07-08T04:18:42;98053.34;;;15.62;78.28
49194;BME280;35029;50.804;12.866;2023-07-08T04:21:08;98048.50;;;15.52;79.28
49194;BME280;35029;50.804;12.866;2023-07-08T04:23:33;98069.69;;;15.72;78.90
49194;BME280;35029;50.804;12.866;2023-07-08T04:26:00;98075.19;;;15.78;79.11
49194;BME280;35029;50.804;12.866;2023-07-08T04:28:26;98057.97;;;15.74;79.54
49194;BME280;35029;50.804;12.866;2023-07-08T04:30:52;98072.31;;;15.79;80.47
49194;BME280;35029;50.804;12.866;2023-07-08T04:33:18;98075.41;;;15.83;80.74
49194;BME280;35029;50.804;12.866;2023-07-08T04:35:44;98060.38;;;15.82;81.09
49194;BME280;35029;50.804;12.866;2023-07-08T04:38:21;98076.41;;;16.00;80.48
49194;BME280;35029;50.804;12.866;2023-07-08T04:40:48;98073.91;;;16.05;80.95
49194;BME280;35029;50.804;12.866;2023-07-08T04:43:14;98072.13;;;16.18;81.09
49194;BME280;35029;50.804;12.866;2023-07-08T04:45:42;98071.59;;;16.28;81.20
49194;BME280;35029;50.804;12.866;2023-07-08T04:48:13;98066.47;;;16.26;82.47
49194;BME280;35029;50.804;12.866;2023-07-08T04:50:40;98070.56;;;16.29;82.49
49194;BME280;35029;50.804;12.866;2023-07-08T04:53:06;98073.53;;;16.39;82.73
49194;BME280;35029;50.804;12.866;2023-07-08T04:55:33;98076.31;;;16.44;82.36
49194;BME280;35029;50.804;12.866;2023-07-08T04:57:58;98081.97;;;16.54;82.69
49194;BME280;35029;50.804;12.866;2023-07-08T05:00:24;98077.72;;;16.65;82.63
49194;BME280;35029;50.804;12.866;2023-07-08T05:02:50;98064.09;;;16.67;81.89
49194;BME280;35029;50.804;12.866;2023-07-08T05:05:15;98059.84;;;16.78;81.87
49194;BME280;35029;50.804;12.866;2023-07-08T05:07:41;98084.81;;;16.90;82.41
49194;BME280;35029;50.804;12.866;2023-07-08T05:10:07;98081.47;;;16.95;82.53
49194;BME280;35029;50.804;12.866;2023-07-08T05:12:32;98088.13;;;17.04;82.38
49194;BME280;35029;50.804;12.866;2023-07-08T05:14:58;98086.50;;;17.15;82.70
49194;BME280;35029;50.804;12.866;2023-07-08T05:17:23;98084.91;;;17.26;82.67
49194;BME280;35029;50.804;12.866;2023-07-08T05:19:50;98082.84;;;17.39;82.37
49194;BME280;35029;50.804;12.866;2023-07-08T05:22:17;98087.97;;;17.53;82.72
49194;BME280;35029;50.804;12.866;2023-07-08T05:24:43;98087.19;;;17.64;83.18
49194;BME280;35029;50.804;12.866;2023-07-08T05:27:09;98096.63;;;17.79;83.48
49194;BME280;35029;50.804;12.866;2023-07-08T05:29:35;98082.97;;;17.80;83.79
49194;BME280;35029;50.804;12.866;2023-07-08T05:32:01;98091.97;;;17.98;83.69
49194;BME280;35029;50.804;12.866;2023-07-08T05:34:27;98093.59;;;18.11;83.57
49194;BME280;35029;50.804;12.866;2023-07-08T05:36:53;98093.34;;;18.24;83.61
49194;BME280;35029;50.804;12.866;2023-07-08T05:39:18;98076.78;;;18.27;83.29
49194;BME280;35029;50.804;12.866;2023-07-08T05:41:44;98087.69;;;18.49;83.20
49194;BME280;35029;50.804;12.866;2023-07-08T05:44:09;98088.81;;;18.65;82.91
49194;BME280;35029;50.804;12.866;2023-07-08T05:46:35;98074.38;;;18.83;82.94
49194;BME280;35029;50.804;12.866;2023-07-08T05:49:01;98079.78;;;19.00;82.54
49194;BME280;35029;50.804;12.866;2023-07-08T05:51:26;98081.91;;;19.15;82.06
49194;BME280;35029;50.804;12.866;2023-07-08T05:53:52;98085.09;;;19.29;81.41
49194;BME280;35029;50.804;12.866;2023-07-08T05:56:17;98081.84;;;19.44;81.03
49194;BME280;35029;50.804;12.866;2023-07-08T05:58:43;98077.19;;;19.56;80.45
49194;BME280;35029;50.804;12.866;2023-07-08T06:01:08;98078.75;;;19.69;79.78
49194;BME280;35029;50.804;12.866;2023-07-08T06:03:34;98074.13;;;19.82;78.72
49194;BME280;35029;50.804;12.866;2023-07-08T06:05:59;98069.19;;;19.96;76.99
49194;BME280;35029;50.804;12.866;2023-07-08T06:08:26;98070.16;;;20.06;76.52
49194;BME280;35029;50.804;12.866;2023-07-08T06:10:52;98081.44;;;20.25;72.45
49194;BME280;35029;50.804;12.866;2023-07-08T06:13:17;98073.53;;;20.41;66.00
49194;BME280;35029;50.804;12.866;2023-07-08T06:15:43;98082.16;;;20.65;61.65
49194;BME280;35029;50.804;12.866;2023-07-08T06:18:09;98070.47;;;20.76;59.12
49194;BME280;35029;50.804;12.866;2023-07-08T06:20:34;98077.28;;;20.84;59.03
49194;BME280;35029;50.804;12.866;2023-07-08T06:23:00;98080.63;;;20.97;57.70
49194;BME280;35029;50.804;12.866;2023-07-08T06:25:27;98084.22;;;21.07;57.24
49194;BME280;35029;50.804;12.866;2023-07-08T06:27:53;98080.56;;;21.19;60.00
49194;BME280;35029;50.804;12.866;2023-07-08T06:30:18;98080.59;;;21.24;59.44
49194;BME280;35029;50.804;12.866;2023-07-08T06:32:44;98078.75;;;21.30;58.71
49194;BME280;35029;50.804;12.866;2023-07-08T06:35:10;98079.63;;;21.35;57.09
49194;BME280;35029;50.804;12.866;2023-07-08T06:37:35;98076.75;;;21.47;55.08
49194;BME280;35029;50.804;12.866;2023-07-08T06:40:01;98085.25;;;21.61;54.13
49194;BME280;35029;50.804;12.866;2023-07-08T06:42:26;98088.06;;;21.76;57.09
49194;BME280;35029;50.804;12.866;2023-07-08T06:47:29;98069.06;;;22.04;54.77
49194;BME280;35029;50.804;12.866;2023-07-08T06:49:54;98088.88;;;22.30;53.05
49194;BME280;35029;50.804;12.866;2023-07-08T06:52:20;98089.81;;;22.51;50.72
49194;BME280;35029;50.804;12.866;2023-07-08T06:54:45;98071.19;;;22.60;50.30
49194;BME280;35029;50.804;12.866;2023-07-08T06:57:11;98090.72;;;22.83;50.03
49194;BME280;35029;50.804;12.866;2023-07-08T06:59:37;98085.34;;;22.98;48.64
49194;BME280;35029;50.804;12.866;2023-07-08T07:02:05;98074.78;;;23.07;49.22
49194;BME280;35029;50.804;12.866;2023-07-08T07:04:31;98082.13;;;23.22;47.02
49194;BME280;35029;50.804;12.866;2023-07-08T07:06:57;98081.59;;;23.40;46.80
49194;BME280;35029;50.804;12.866;2023-07-08T07:09:23;98083.22;;;23.52;45.14
49194;BME280;35029;50.804;12.866;2023-07-08T07:11:48;98072.13;;;23.63;45.56
49194;BME280;35029;50.804;12.866;2023-07-08T07:14:14;98076.19;;;23.76;44.79
49194;BME280;35029;50.804;12.866;2023-07-08T07:16:40;98078.31;;;23.85;44.26
49194;BME280;35029;50.804;12.866;2023-07-08T07:19:07;98069.66;;;23.88;48.11
49194;BME280;35029;50.804;12.866;2023-07-08T07:21:32;98075.34;;;23.96;48.21
49194;BME280;35029;50.804;12.866;2023-07-08T07:23:58;98067.19;;;24.07;49.60
49194;BME280;35029;50.804;12.866;2023-07-08T07:26:24;98064.44;;;24.17;47.77
49194;BME280;35029;50.804;12.866;2023-07-08T07:28:49;98074.75;;;24.20;47.85
49194;BME280;35029;50.804;12.866;2023-07-08T07:31:15;98067.97;;;24.18;48.10
49194;BME280;35029;50.804;12.866;2023-07-08T07:33:40;98076.59;;;24.30;46.44
49194;BME280;35029;50.804;12.866;2023-07-08T07:36:06;98074.63;;;24.46;44.65
49194;BME280;35029;50.804;12.866;2023-07-08T07:38:33;98059.97;;;24.52;42.81
49194;BME280;35029;50.804;12.866;2023-07-08T07:40:59;98069.38;;;24.70;44.05
49194;BME280;35029;50.804;12.866;2023-07-08T07:43:25;98072.06;;;24.75;43.38
49194;BME280;35029;50.804;12.866;2023-07-08T07:45:52;98069.84;;;24.83;42.61
49194;BME280;35029;50.804;12.866;2023-07-08T07:48:19;98067.66;;;24.90;41.33
49194;BME280;35029;50.804;12.866;2023-07-08T07:50:46;98061.56;;;25.03;40.65
49194;BME280;35029;50.804;12.866;2023-07-08T07:53:12;98062.03;;;25.16;41.82
49194;BME280;35029;50.804;12.866;2023-07-08T07:55:38;98061.22;;;25.15;39.70
49194;BME280;35029;50.804;12.866;2023-07-08T07:58:04;98060.56;;;25.28;39.96
49194;BME280;35029;50.804;12.866;2023-07-08T08:00:30;98061.63;;;25.38;40.97
49194;BME280;35029;50.804;12.866;2023-07-08T08:02:56;98051.00;;;25.41;42.66
49194;BME280;35029;50.804;12.866;2023-07-08T08:05:23;98071.91;;;25.70;42.01
49194;BME280;35029;50.804;12.866;2023-07-08T08:07:48;98061.50;;;25.77;38.95
49194;BME280;35029;50.804;12.866;2023-07-08T08:10:14;98063.91;;;25.84;40.16
49194;BME280;35029;50.804;12.866;2023-07-08T08:12:41;98058.59;;;25.98;38.53
49194;BME280;35029;50.804;12.866;2023-07-08T08:15:07;98053.63;;;26.05;37.47
49194;BME280;35029;50.804;12.866;2023-07-08T08:17:33;98053.34;;;26.07;38.90
49194;BME280;35029;50.804;12.866;2023-07-08T08:20:00;98055.41;;;26.15;37.78
49194;BME280;35029;50.804;12.866;2023-07-08T08:22:25;98058.81;;;26.26;38.27
49194;BME280;35029;50.804;12.866;2023-07-08T08:24:51;98063.03;;;25.89;40.27
49194;BME280;35029;50.804;12.866;2023-07-08T08:27:16;98062.97;;;25.64;40.81
49194;BME280;35029;50.804;12.866;2023-07-08T08:29:42;98062.63;;;25.47;41.81
49194;BME280;35029;50.804;12.866;2023-07-08T08:32:07;98053.91;;;25.50;40.43
49194;BME280;35029;50.804;12.866;2023-07-08T08:34:34;98059.91;;;25.47;41.10
49194;BME280;35029;50.804;12.866;2023-07-08T08:37:00;98061.75;;;25.52;39.20
49194;BME280;35029;50.804;12.866;2023-07-08T08:39:25;98061.22;;;25.50;36.80
49194;BME280;35029;50.804;12.866;2023-07-08T08:41:54;98064.03;;;25.69;36.31
49194;BME280;35029;50.804;12.866;2023-07-08T08:44:33;98056.78;;;25.88;35.89
49194;BME280;35029;50.804;12.866;2023-07-08T08:49:50;98063.69;;;26.29;31.25
49194;BME280;35029;50.804;12.866;2023-07-08T08:52:16;98064.69;;;26.38;31.56
49194;BME280;35029;50.804;12.866;2023-07-08T08:54:42;98061.31;;;26.46;32.54
49194;BME280;35029;50.804;12.866;2023-07-08T08:59:45;98075.28;;;26.59;32.74
49194;BME280;35029;50.804;12.866;2023-07-08T09:02:36;98071.38;;;26.65;34.43
49194;BME280;35029;50.804;12.866;2023-07-08T09:05:05;98070.50;;;26.70;30.51
49194;BME280;35029;50.804;12.866;2023-07-08T09:07:41;98075.03;;;26.98;30.25
49194;BME280;35029;50.804;12.866;2023-07-08T09:10:45;98074.41;;;27.40;32.35
49194;BME280;35029;50.804;12.866;2023-07-08T09:13:17;98072.41;;;27.45;33.55
49194;BME280;35029;50.804;12.866;2023-07-08T09:15:47;98068.50;;;27.52;29.67
49194;BME280;35029;50.804;12.866;2023-07-08T09:18:33;98067.25;;;27.44;31.47
49194;BME280;35029;50.804;12.866;2023-07-08T09:21:05;98079.25;;;27.43;30.40
49194;BME280;35029;50.804;12.866;2023-07-08T09:23:36;98068.66;;;27.41;30.50
49194;BME280;35029;50.804;12.866;2023-07-08T09:26:07;98066.97;;;27.26;26.69
49194;BME280;35029;50.804;12.866;2023-07-08T09:28:42;98072.78;;;27.20;31.75
49194;BME280;35029;50.804;12.866;2023-07-08T09:31:21;98073.81;;;27.24;34.90
49194;BME280;35029;50.804;12.866;2023-07-08T09:33:47;98082.69;;;27.29;34.56
49194;BME280;35029;50.804;12.866;2023-07-08T09:36:23;98061.75;;;27.30;32.58
49194;BME280;35029;50.804;12.866;2023-07-08T09:38:50;98080.16;;;27.38;32.88
49194;BME280;35029;50.804;12.866;2023-07-08T09:41:30;98075.16;;;27.59;35.13
49194;BME280;35029;50.804;12.866;2023-07-08T09:44:18;98077.25;;;27.48;38.47
49194;BME280;35029;50.804;12.866;2023-07-08T09:46:44;98080.09;;;27.57;38.13
49194;BME280;35029;50.804;12.866;2023-07-08T09:51:45;98077.53;;;27.94;39.49
49194;BME280;35029;50.804;12.866;2023-07-08T09:54:11;98060.91;;;28.23;37.43
49194;BME280;35029;50.804;12.866;2023-07-08T09:56:41;98070.50;;;28.48;37.05
49194;BME280;35029;50.804;12.866;2023-07-08T09:59:13;98078.44;;;28.73;35.59
49194;BME280;35029;50.804;12.866;2023-07-08T10:01:40;98073.50;;;28.75;35.10
49194;BME280;35029;50.804;12.866;2023-07-08T10:04:06;98073.38;;;28.80;35.55
49194;BME280;35029;50.804;12.866;2023-07-08T10:06:32;98078.78;;;28.94;35.95
49194;BME280;35029;50.804;12.866;2023-07-08T10:09:04;98080.47;;;29.04;33.39
49194;BME280;35029;50.804;12.866;2023-07-08T10:11:35;98069.06;;;29.02;32.95
49194;BME280;35029;50.804;12.866;2023-07-08T10:14:07;98055.16;;;29.12;36.07
49194;BME280;35029;50.804;12.866;2023-07-08T10:16:36;98064.56;;;29.20;33.80
49194;BME280;35029;50.804;12.866;2023-07-08T10:19:13;98075.84;;;29.27;32.76
49194;BME280;35029;50.804;12.866;2023-07-08T10:30:58;98075.34;;;30.01;31.99
49194;BME280;35029;50.804;12.866;2023-07-08T10:33:40;98072.41;;;29.98;31.93
49194;BME280;35029;50.804;12.866;2023-07-08T10:42:11;98063.56;;;29.38;32.15
49194;BME280;35029;50.804;12.866;2023-07-08T10:44:34;98062.31;;;29.67;33.94
49194;BME280;35029;50.804;12.866;2023-07-08T11:09:53;98045.78;;;30.12;29.11
49194;BME280;35029;50.804;12.866;2023-07-08T11:12:31;98043.69;;;30.58;28.96
49194;BME280;35029;50.804;12.866;2023-07-08T11:15:19;98047.03;;;30.99;27.26
49194;BME280;35029;50.804;12.866;2023-07-08T11:20:45;98046.41;;;31.28;26.84
49194;BME280;35029;50.804;12.866;2023-07-08T11:25:43;98046.94;;;30.20;29.98
49194;BME280;35029;50.804;12.866;2023-07-08T11:28:17;98047.06;;;29.75;28.82
49194;BME280;35029;50.804;12.866;2023-07-08T11:30:46;98049.84;;;29.52;31.16
49194;BME280;35029;50.804;12.866;2023-07-08T11:33:13;98048.97;;;29.20;30.13
49194;BME280;35029;50.804;12.866;2023-07-08T11:35:46;98050.25;;;29.00;34.06
49194;BME280;35029;50.804;12.866;2023-07-08T11:38:15;98051.00;;;28.92;34.29
49194;BME280;35029;50.804;12.866;2023-07-08T11:43:24;98048.28;;;29.60;31.79
49194;BME280;35029;50.804;12.866;2023-07-08T11:45:55;98040.97;;;29.24;31.76
49194;BME280;35029;50.804;12.866;2023-07-08T11:48:31;98044.63;;;28.96;33.21
49194;BME280;35029;50.804;12.866;2023-07-08T11:51:04;98040.09;;;28.92;31.44
49194;BME280;35029;50.804;12.866;2023-07-08T11:53:36;98039.75;;;29.30;31.78
49194;BME280;35029;50.804;12.866;2023-07-08T11:59:05;98043.97;;;29.36;34.39
49194;BME280;35029;50.804;12.866;2023-07-08T12:01:39;98033.22;;;29.17;36.03
49194;BME280;35029;50.804;12.866;2023-07-08T12:09:13;98037.00;;;30.33;31.81
49194;BME280;35029;50.804;12.866;2023-07-08T12:11:47;98039.66;;;30.99;31.45
49194;BME280;35029;50.804;12.866;2023-07-08T12:14:13;98027.97;;;31.64;29.95
49194;BME280;35029;50.804;12.866;2023-07-08T12:16:40;98023.56;;;31.80;28.73
49194;BME280;35029;50.804;12.866;2023-07-08T12:19:12;98023.28;;;31.73;27.24
49194;BME280;35029;50.804;12.866;2023-07-08T12:21:40;98022.78;;;31.71;27.72
49194;BME280;35029;50.804;12.866;2023-07-08T12:24:07;98023.63;;;31.54;26.87
49194;BME280;35029;50.804;12.866;2023-07-08T12:26:33;98033.53;;;31.38;25.89
49194;BME280;35029;50.804;12.866;2023-07-08T12:28:59;98023.75;;;31.10;25.97
49194;BME280;35029;50.804;12.866;2023-07-08T12:31:25;98013.44;;;31.16;27.88
49194;BME280;35029;50.804;12.866;2023-07-08T12:33:51;98029.53;;;31.17;27.47
49194;BME280;35029;50.804;12.866;2023-07-08T12:36:20;98021.31;;;30.91;27.83
49194;BME280;35029;50.804;12.866;2023-07-08T12:38:48;98021.94;;;30.79;27.54
49194;BME280;35029;50.804;12.866;2023-07-08T12:41:18;98016.66;;;31.09;28.17
49194;BME280;35029;50.804;12.866;2023-07-08T12:43:45;98014.34;;;31.29;27.74
49194;BME280;35029;50.804;12.866;2023-07-08T12:46:11;98019.97;;;31.41;24.94
49194;BME280;35029;50.804;12.866;2023-07-08T12:48:38;98018.53;;;31.35;23.52
49194;BME280;35029;50.804;12.866;2023-07-08T12:51:06;98016.88;;;31.43;26.54
49194;BME280;35029;50.804;12.866;2023-07-08T12:53:35;98013.88;;;31.83;26.54
49194;BME280;35029;50.804;12.866;2023-07-08T12:56:01;98009.28;;;32.05;25.48
49194;BME280;35029;50.804;12.866;2023-07-08T12:58:29;98012.97;;;32.00;25.72
49194;BME280;35029;50.804;12.866;2023-07-08T13:00:57;98009.63;;;31.94;24.43
49194;BME280;35029;50.804;12.866;2023-07-08T13:03:26;97997.59;;;31.30;24.98
49194;BME280;35029;50.804;12.866;2023-07-08T13:05:54;98016.97;;;31.73;25.32
49194;BME280;35029;50.804;12.866;2023-07-08T13:08:24;98002.31;;;31.68;24.02
49194;BME280;35029;50.804;12.866;2023-07-08T13:10:56;97993.75;;;31.79;26.05
49194;BME280;35029;50.804;12.866;2023-07-08T13:13:25;98011.56;;;31.46;27.48
49194;BME280;35029;50.804;12.866;2023-07-08T13:15:52;98005.59;;;31.53;26.50
49194;BME280;35029;50.804;12.866;2023-07-08T13:18:32;97998.13;;;32.10;26.05
49194;BME280;35029;50.804;12.866;2023-07-08T13:20:59;98001.13;;;31.87;25.25
49194;BME280;35029;50.804;12.866;2023-07-08T13:23:26;98001.06;;;31.96;26.00
49194;BME280;35029;50.804;12.866;2023-07-08T13:25:53;97984.44;;;32.01;25.78
49194;BME280;35029;50.804;12.866;2023-07-08T13:28:27;97992.41;;;32.24;25.16
49194;BME280;35029;50.804;12.866;2023-07-08T13:30:59;97995.75;;;32.50;24.63
49194;BME280;35029;50.804;12.866;2023-07-08T13:33:30;97991.16;;;32.63;23.88
49194;BME280;35029;50.804;12.866;2023-07-08T13:35:56;97990.66;;;32.61;24.20
49194;BME280;35029;50.804;12.866;2023-07-08T13:38:24;97979.59;;;32.79;23.60
49194;BME280;35029;50.804;12.866;2023-07-08T13:40:58;97979.53;;;32.88;23.90
49194;BME280;35029;50.804;12.866;2023-07-08T13:43:26;97992.16;;;33.34;22.65
49194;BME280;35029;50.804;12.866;2023-07-08T13:45:52;97982.44;;;33.37;22.67
49194;BME280;35029;50.804;12.866;2023-07-08T13:48:27;97977.28;;;33.35;23.77
49194;BME280;35029;50.804;12.866;2023-07-08T13:53:25;97982.91;;;33.51;22.04
49194;BME280;35029;50.804;12.866;2023-07-08T13:56:01;97983.00;;;33.43;23.30
49194;BME280;35029;50.804;12.866;2023-07-08T13:58:29;97979.09;;;32.98;23.61
49194;BME280;35029;50.804;12.866;2023-07-08T14:00:56;97989.19;;;32.64;23.51
49194;BME280;35029;50.804;12.866;2023-07-08T14:03:22;97981.78;;;32.43;24.96
49194;BME280;35029;50.804;12.866;2023-07-08T14:05:47;97981.66;;;32.10;26.22
49194;BME280;35029;50.804;12.866;2023-07-08T14:08:14;97980.16;;;31.91;24.77